Willsboro Point, New York
Current Conditions -  °F | °C
As of 8:54 PM on Saturday 25 Oct 2014 (Local Time) from KBTV Reporting Station
Light Rain Light Rain  
Wind Chill: 53°   Ceiling: 4000
Heat Index: 53°   Visibility: 10mi
Dew Point: 48°   Wind: 5mph
Humidity: 83%   Direction: NA
Pressure: 29.48"   Gusts: NA
Location:  44.3585°N, 73.4161°W
Report Text: KBTV 260054Z VRB04KT 10SM -RA BR SCT033 BKN040 OVC060 12/09 A2948 RMK AO2 SLP985 P0004 T01170089
Loading
Personal Weather Stations






























Interactive Weather Map
Tropical Storm Tracking
New forecast layout! Learn more

10-Day Weather Forecast

Advertisements
Track Severe Weather on mobile